Time;durP1;ratioP1;P1;durP2;ratioP2;P2;SDS_P1;SDS_P2;PMS_P1;PMS_P2;Temp;Humidity;BMP_temperature;BMP_pressure;BME280_temperature;BME280_humidity;BME280_pressure;Samples;Min_cycle;Max_cycle;Signal;HPM_P1;HPM_P2
2022/01/12 00:02:11;;;;;;;;;;;;;;;2.89;100.00;-19242.81;5124336;27;20398;-71
2022/01/12 00:04:36;;;;;;;;;;;;;;;2.90;100.00;-19243.06;5121162;27;19916;-71
2022/01/12 00:07:01;;;;;;;;;;;;;;;2.92;100.00;-19243.63;5119312;27;19935;-71
2022/01/12 00:09:27;;;;;;;;;;;;;;;2.94;100.00;-19244.13;5121124;27;19915;-71
2022/01/12 00:11:52;;;;;;;;;;;;;;;2.94;100.00;-19244.13;5121847;27;19911;-71
2022/01/12 00:14:17;;;;;;;;;;;;;;;3.01;100.00;-19245.72;5119480;27;20294;-71
2022/01/12 00:16:47;;;;;;;;;;;;;;;2.98;100.00;-19244.94;5115180;27;19915;-71
2022/01/12 00:19:12;;;;;;;;;;;;;;;2.99;100.00;-19245.19;5119266;27;19965;-71
2022/01/12 00:21:38;;;;;;;;;;;;;;;3.00;100.00;-19245.59;5119580;27;20337;-71
2022/01/12 00:24:03;;;;;;;;;;;;;;;3.03;100.00;-19246.25;5119565;27;19922;-71
2022/01/12 00:34:25;;;;;;;;;;;;;;;3.00;100.00;-19245.47;5119963;27;19918;-71
2022/01/12 00:36:50;;;;;;;;;;;;;;;3.04;100.00;-19246.66;5121517;27;19915;-71
2022/01/12 00:39:16;;;;;;;;;;;;;;;3.01;100.00;-19245.88;5116273;27;19911;-71
2022/01/12 00:41:41;;;;;;;;;;;;;;;3.11;100.00;-19248.50;5110266;27;19942;-71
2022/01/12 00:44:09;;;;;;;;;;;;;;;3.12;100.00;-19248.66;5119551;27;19911;-71
2022/01/12 00:46:35;;;;;;;;;;;;;;;3.04;100.00;-19246.53;5116672;27;19915;-71
2022/01/12 00:49:00;;;;;;;;;;;;;;;2.97;100.00;-19244.81;5118953;27;19915;-71
2022/01/12 00:51:27;;;;;;;;;;;;;;;2.96;100.00;-19244.41;5115983;27;19924;-71
2022/01/12 00:53:56;;;;;;;;;;;;;;;2.93;100.00;-19243.75;5117669;27;20014;-71
2022/01/12 00:56:22;;;;;;;;;;;;;;;2.84;100.00;-19241.34;5118267;27;20035;-71
2022/01/12 00:58:47;;;;;;;;;;;;;;;2.81;100.00;-19240.69;5111314;27;20404;-71
2022/01/12 01:01:13;;;;;;;;;;;;;;;2.74;100.00;-19238.69;5115923;27;19911;-71
2022/01/12 01:03:38;;;;;;;;;;;;;;;2.64;100.00;-19236.19;5118761;27;19962;-69
2022/01/12 01:06:06;;;;;;;;;;;;;;;2.58;100.00;-19234.59;5110890;27;19923;-69
2022/01/12 01:08:32;;;;;;;;;;;;;;;2.45;100.00;-19231.13;5116050;27;19918;-69
2022/01/12 01:10:57;;;;;;;;;;;;;;;2.42;100.00;-5180.00;5119474;27;20387;-69
2022/01/12 01:13:26;;;;;;;;;;;;;;;2.35;100.00;16334.25;5117906;27;20461;-69
2022/01/12 01:26:31;;;;;;;;;;;;;;;2.26;100.00;78752.47;5114554;27;20343;-68
2022/01/12 01:28:56;;;;;;;;;;;;;;;2.21;100.00;86957.63;5119138;27;19939;-69
2022/01/12 01:31:28;;;;;;;;;;;;;;;2.19;100.00;94527.53;5122250;27;19950;-69
2022/01/12 01:33:54;;;;;;;;;;;;;;;2.17;100.00;101121.09;5118104;27;19919;-69
2022/01/12 01:36:19;;;;;;;;;;;;;;;2.14;100.00;107064.16;5116207;27;20283;-69
2022/01/12 01:38:44;;;;;;;;;;;;;;;2.17;100.00;110710.00;5115537;27;20611;-69
2022/01/12 01:41:10;;;;;;;;;;;;;;;2.17;100.00;113691.22;5118876;27;19972;-69
2022/01/12 01:54:12;;;;;;;;;;;;;;;2.23;100.00;123659.91;5114431;27;20007;-69
2022/01/12 01:56:38;;;;;;;;;;;;;;;2.22;100.00;124987.41;5119837;27;20044;-68
2022/01/12 01:59:03;;;;;;;;;;;;;;;2.21;100.00;126315.41;5118014;27;19916;-68
2022/01/12 02:01:28;;;;;;;;;;;;;;;2.21;100.00;127647.16;5114295;27;19911;-68
2022/01/12 02:03:57;;;;;;;;;;;;;;;2.19;100.00;129306.72;5113412;27;20474;-69
2022/01/12 02:06:23;;;;;;;;;;;;;;;2.21;100.00;130643.00;5119754;27;20392;-68
2022/01/12 02:08:48;;;;;;;;;;;;;;;2.20;100.00;131971.88;5119676;27;19918;-69
2022/01/12 02:11:13;;;;;;;;;;;;;;;2.13;100.00;133621.63;5119059;27;20406;-69
2022/01/12 02:13:38;;;;;;;;;;;;;;;2.14;100.00;135957.47;5116311;27;19915;-69
2022/01/12 02:16:04;;;;;;;;;;;;;;;2.14;100.00;137958.84;5114185;27;19947;-69
2022/01/12 02:40:16;;;;;;;;;;;;;;;2.19;100.00;146993.06;5118576;27;19926;-69
2022/01/12 02:42:45;;;;;;;;;;;;;;;2.21;100.00;147332.72;5119796;27;20398;-69
2022/01/12 02:55:47;;;;;;;;;;;;;;;2.19;100.00;147999.44;5111422;27;20451;-69
2022/01/12 02:58:12;;;;;;;;;;;;;;;2.24;100.00;148010.97;5113053;27;19916;-69
2022/01/12 03:03:21;;;;;;;;;;;;;;;2.24;100.00;148012.28;5119432;27;19994;-69
2022/01/12 03:05:55;;;;;;;;;;;;;;;2.24;100.00;148012.28;5116056;27;19964;-69
2022/01/12 03:08:23;;;;;;;;;;;;;;;2.25;100.00;148014.84;5115809;27;20009;-69
2022/01/12 03:10:49;;;;;;;;;;;;;;;2.26;100.00;148017.41;5118338;27;19911;-69
2022/01/12 03:13:14;;;;;;;;;;;;;;;2.23;100.00;148009.69;5116063;27;20057;-69
2022/01/12 03:15:40;;;;;;;;;;;;;;;2.22;100.00;148007.13;5119190;27;19915;-69
2022/01/12 03:18:06;;;;;;;;;;;;;;;2.22;100.00;148007.13;5115651;27;19919;-69
2022/01/12 03:20:31;;;;;;;;;;;;;;;2.18;100.00;147996.88;5119636;27;19979;-69
2022/01/12 03:22:57;;;;;;;;;;;;;;;2.20;100.00;148000.72;5110033;27;19942;-69
2022/01/12 03:25:22;;;;;;;;;;;;;;;2.18;100.00;147996.88;5114637;28;19915;-69
2022/01/12 03:27:49;;;;;;;;;;;;;;;2.19;100.00;147999.44;5115289;27;20346;-69
2022/01/12 03:30:15;;;;;;;;;;;;;;;2.20;100.00;148002.00;5115059;27;20349;-69
2022/01/12 03:32:46;;;;;;;;;;;;;;;2.21;100.00;148003.28;5114936;27;20034;-69
2022/01/12 03:35:24;;;;;;;;;;;;;;;2.17;100.00;147994.25;5116174;28;19919;-69
2022/01/12 03:38:20;;;;;;;;;;;;;;;2.14;100.00;147986.56;5115039;28;19912;-69
2022/01/12 03:40:40;;;;;;;;;;;;;;;2.16;100.00;147991.69;5116155;28;20021;-69
2022/01/12 03:43:06;;;;;;;;;;;;;;;2.13;100.00;147983.97;5111509;28;20022;-69
2022/01/12 03:45:31;;;;;;;;;;;;;;;2.12;100.00;147981.41;5119230;28;19911;-69
2022/01/12 03:47:56;;;;;;;;;;;;;;;2.10;100.00;147976.28;5111563;28;19925;-68
2022/01/12 03:50:21;;;;;;;;;;;;;;;2.09;100.00;147973.72;5114623;28;19911;-69
2022/01/12 03:52:46;;;;;;;;;;;;;;;2.09;100.00;147973.72;5112410;28;19981;-69
2022/01/12 03:55:12;;;;;;;;;;;;;;;2.09;100.00;147973.72;5114760;28;19911;-69
2022/01/12 03:57:37;;;;;;;;;;;;;;;2.08;100.00;147971.16;5111474;28;20204;-69
2022/01/12 04:00:04;;;;;;;;;;;;;;;2.09;100.00;147972.44;5120089;28;20298;-66
2022/01/12 04:02:31;;;;;;;;;;;;;;;2.06;100.00;147966.03;5117752;28;19953;-68
2022/01/12 04:10:17;;;;;;;;;;;;;;;2.08;100.00;147971.16;5116889;28;19972;-67
2022/01/12 04:12:42;;;;;;;;;;;;;;;2.09;100.00;147973.72;5114146;28;20287;-67
2022/01/12 04:15:08;;;;;;;;;;;;;;;2.08;100.00;147969.88;5116836;28;19922;-68
2022/01/12 04:17:33;;;;;;;;;;;;;;;2.12;100.00;147981.41;5109983;28;19911;-68
2022/01/12 04:20:01;;;;;;;;;;;;;;;2.09;100.00;147973.72;5111337;28;19916;-68
2022/01/12 04:25:10;;;;;;;;;;;;;;;2.12;100.00;147980.13;5111868;28;19947;-67
2022/01/12 04:27:37;;;;;;;;;;;;;;;2.10;100.00;147976.28;5116667;28;19919;-68
2022/01/12 04:30:02;;;;;;;;;;;;;;;2.11;100.00;147977.56;5116493;28;19911;-68
2022/01/12 04:32:28;;;;;;;;;;;;;;;2.10;100.00;147976.28;5107804;28;19919;-68
2022/01/12 04:34:54;;;;;;;;;;;;;;;2.16;100.00;147991.69;5107276;28;19915;-68
2022/01/12 04:37:19;;;;;;;;;;;;;;;2.12;100.00;147981.41;5116189;28;19947;-68
2022/01/12 04:39:44;;;;;;;;;;;;;;;2.13;100.00;147983.97;5118584;28;19923;-68
2022/01/12 04:42:09;;;;;;;;;;;;;;;2.15;100.00;147989.13;5113747;27;19967;-68
2022/01/12 04:44:39;;;;;;;;;;;;;;;2.16;100.00;147990.41;5119913;27;20350;-68
2022/01/12 04:47:14;;;;;;;;;;;;;;;2.17;100.00;147994.25;5120085;27;20411;-68
2022/01/12 04:52:11;;;;;;;;;;;;;;;2.18;100.00;147995.53;5112252;27;19911;-68
2022/01/12 04:54:36;;;;;;;;;;;;;;;2.17;100.00;147994.25;5114449;27;20288;-68
2022/01/12 04:57:02;;;;;;;;;;;;;;;2.19;100.00;147999.44;5122470;27;20357;-68
2022/01/12 04:59:28;;;;;;;;;;;;;;;2.17;100.00;147994.25;5118546;27;19911;-68
2022/01/12 05:01:58;;;;;;;;;;;;;;;2.18;100.00;147995.53;5122932;27;19911;-68
2022/01/12 05:15:07;;;;;;;;;;;;;;;2.21;100.00;148004.56;5121247;27;20385;-68
2022/01/12 05:17:34;;;;;;;;;;;;;;;2.26;100.00;148017.41;5119447;27;19960;-68
2022/01/12 05:19:59;;;;;;;;;;;;;;;2.27;100.00;148019.97;5113409;27;20574;-68
2022/01/12 05:22:24;;;;;;;;;;;;;;;2.25;100.00;148013.56;5120779;27;19967;-68
2022/01/12 05:24:50;;;;;;;;;;;;;;;2.24;100.00;148010.97;5117541;27;20291;-68
2022/01/12 05:27:15;;;;;;;;;;;;;;;2.25;100.00;148013.56;5119136;27;20021;-67
2022/01/12 05:29:40;;;;;;;;;;;;;;;2.27;100.00;148018.69;5119392;27;19960;-68
2022/01/12 05:32:06;;;;;;;;;;;;;;;2.28;100.00;148022.53;5120933;27;19923;-68
2022/01/12 05:34:31;;;;;;;;;;;;;;;2.30;100.00;148027.72;5115504;27;19925;-68
2022/01/12 05:36:57;;;;;;;;;;;;;;;2.29;100.00;148025.09;5106714;27;19916;-68
2022/01/12 05:39:22;;;;;;;;;;;;;;;2.31;100.00;148030.28;5120169;27;19964;-68
2022/01/12 05:41:47;;;;;;;;;;;;;;;2.30;100.00;148027.72;5114059;27;19918;-68
2022/01/12 05:44:13;;;;;;;;;;;;;;;2.29;100.00;148025.09;5113083;27;19918;-68
2022/01/12 05:46:41;;;;;;;;;;;;;;;2.32;100.00;148031.56;5116380;27;19950;-68
2022/01/12 05:51:51;;;;;;;;;;;;;;;2.30;100.00;148027.72;5112390;27;19922;-69
2022/01/12 05:54:16;;;;;;;;;;;;;;;2.31;100.00;148030.28;5117425;27;19917;-69
2022/01/12 05:56:41;;;;;;;;;;;;;;;2.33;100.00;148035.44;5119201;27;20958;-69
2022/01/12 05:59:06;;;;;;;;;;;;;;;2.32;100.00;148031.56;5116807;27;19946;-69
2022/01/12 06:01:32;;;;;;;;;;;;;;;2.32;100.00;148032.84;5118804;27;20701;-69
2022/01/12 06:03:57;;;;;;;;;;;;;;;2.30;100.00;148027.72;5116614;27;19952;-69
2022/01/12 06:06:23;;;;;;;;;;;;;;;2.33;100.00;148035.44;5112757;27;19919;-69
2022/01/12 06:08:48;;;;;;;;;;;;;;;2.34;100.00;148036.72;5118084;27;19911;-69
2022/01/12 06:11:13;;;;;;;;;;;;;;;2.33;100.00;148035.44;5109871;27;20576;-69
2022/01/12 06:13:38;;;;;;;;;;;;;;;2.32;100.00;148032.84;5118545;27;19915;-69
2022/01/12 06:16:04;;;;;;;;;;;;;;;2.34;100.00;148038.00;5114776;27;20338;-69
2022/01/12 06:18:29;;;;;;;;;;;;;;;2.35;100.00;148040.56;5116046;27;19916;-69
2022/01/12 06:20:54;;;;;;;;;;;;;;;2.38;100.00;148045.69;5118436;27;19997;-69
2022/01/12 06:23:20;;;;;;;;;;;;;;;2.38;100.00;148045.69;5114633;27;20311;-69
2022/01/12 06:25:45;;;;;;;;;;;;;;;2.34;100.00;148038.00;5117329;27;19998;-69
2022/01/12 06:28:36;;;;;;;;;;;;;;;2.34;100.00;148038.00;5118060;27;19912;-69
2022/01/12 06:31:11;;;;;;;;;;;;;;;2.35;100.00;148040.56;5118780;27;19915;-69
2022/01/12 06:33:41;;;;;;;;;;;;;;;2.42;100.00;148055.97;5111685;27;20549;-69
2022/01/12 06:36:07;;;;;;;;;;;;;;;2.40;100.00;148050.84;5119266;27;20404;-69
2022/01/12 06:38:32;;;;;;;;;;;;;;;2.39;100.00;148049.53;5115105;27;20010;-69
2022/01/12 06:40:57;;;;;;;;;;;;;;;2.42;100.00;148055.97;5093693;27;19917;-69
2022/01/12 06:43:23;;;;;;;;;;;;;;;2.41;100.00;148053.41;5112576;27;19919;-69
2022/01/12 06:45:48;;;;;;;;;;;;;;;2.41;100.00;148053.41;5109458;27;19922;-69
2022/01/12 06:48:13;;;;;;;;;;;;;;;2.41;100.00;148054.69;5113722;27;20691;-69
2022/01/12 06:50:38;;;;;;;;;;;;;;;2.44;100.00;148061.16;5113043;27;19927;-69
2022/01/12 06:53:04;;;;;;;;;;;;;;;2.42;100.00;148057.25;5113777;27;19923;-69
2022/01/12 06:55:29;;;;;;;;;;;;;;;2.53;100.00;148084.25;5116239;27;19922;-69
2022/01/12 06:57:54;;;;;;;;;;;;;;;2.46;100.00;148066.28;5108154;27;19915;-69
2022/01/12 07:00:20;;;;;;;;;;;;;;;2.47;100.00;148068.84;5108486;27;19995;-69
2022/01/12 07:02:45;;;;;;;;;;;;;;;2.44;100.00;148061.16;5109847;27;20371;-69
2022/01/12 07:05:10;;;;;;;;;;;;;;;2.44;100.00;148062.44;5115383;27;19919;-69
2022/01/12 07:07:35;;;;;;;;;;;;;;;2.45;100.00;148065.00;5112232;27;19923;-69
2022/01/12 07:10:02;;;;;;;;;;;;;;;2.43;100.00;148058.59;5118778;27;19915;-69
2022/01/12 07:12:28;;;;;;;;;;;;;;;2.45;100.00;148063.72;5116517;27;19919;-69
2022/01/12 07:14:53;;;;;;;;;;;;;;;2.46;100.00;148066.28;5108418;27;19911;-69
2022/01/12 07:17:18;;;;;;;;;;;;;;;2.48;100.00;148071.41;5110986;27;19978;-69
2022/01/12 07:19:43;;;;;;;;;;;;;;;2.52;100.00;148081.69;5116135;27;19915;-69
2022/01/12 07:22:09;;;;;;;;;;;;;;;2.46;100.00;148066.28;5119562;27;19919;-69
2022/01/12 07:24:34;;;;;;;;;;;;;;;2.49;100.00;148074.00;5119194;27;19911;-70
2022/01/12 07:26:59;;;;;;;;;;;;;;;2.53;100.00;148085.53;5106233;27;20548;-69
2022/01/12 07:29:25;;;;;;;;;;;;;;;2.49;100.00;148074.00;5103776;28;20018;-69
2022/01/12 07:31:50;;;;;;;;;;;;;;;2.49;100.00;148074.00;5118381;28;20002;-69
2022/01/12 07:34:17;;;;;;;;;;;;;;;2.49;100.00;148074.00;5112548;28;20439;-69
2022/01/12 07:36:42;;;;;;;;;;;;;;;2.48;100.00;148072.72;5117613;28;19918;-69
2022/01/12 07:39:08;;;;;;;;;;;;;;;2.49;100.00;148075.28;5116206;28;19923;-69
2022/01/12 07:41:33;;;;;;;;;;;;;;;2.53;100.00;148084.25;5116285;28;19913;-69
2022/01/12 07:43:58;;;;;;;;;;;;;;;2.52;100.00;148082.97;5110381;28;19956;-69
2022/01/12 07:46:24;;;;;;;;;;;;;;;2.54;100.00;148088.13;5107717;28;19912;-69
2022/01/12 07:48:49;;;;;;;;;;;;;;;2.54;100.00;148086.81;5117236;28;19978;-69
2022/01/12 07:51:14;;;;;;;;;;;;;;;2.55;100.00;148090.72;5119617;28;19941;-69
2022/01/12 07:53:40;;;;;;;;;;;;;;;2.52;100.00;148081.69;5104153;28;19926;-69
2022/01/12 07:56:06;;;;;;;;;;;;;;;2.54;100.00;148088.13;5108936;28;20612;-69
2022/01/12 07:58:31;;;;;;;;;;;;;;;2.60;100.00;148102.28;5109089;28;19916;-69
2022/01/12 08:00:56;;;;;;;;;;;;;;;2.58;100.00;148098.44;5115979;28;19907;-69
2022/01/12 08:03:22;;;;;;;;;;;;;;;2.58;100.00;148098.44;5114946;27;19922;-69
2022/01/12 08:05:47;;;;;;;;;;;;;;;2.61;100.00;148106.13;5117608;28;20311;-69
2022/01/12 08:08:14;;;;;;;;;;;;;;;2.62;100.00;148107.44;5112685;28;20424;-69
2022/01/12 08:10:40;;;;;;;;;;;;;;;2.63;100.00;148110.00;5114993;28;20264;-69
2022/01/12 08:13:05;;;;;;;;;;;;;;;2.62;100.00;148107.44;5108883;28;19911;-69
2022/01/12 08:15:30;;;;;;;;;;;;;;;2.63;100.00;148111.28;5113361;27;20375;-69
2022/01/12 08:17:55;;;;;;;;;;;;;;;2.65;100.00;148115.13;5114164;27;20006;-69
2022/01/12 08:20:26;;;;;;;;;;;;;;;2.66;100.00;148117.69;5113390;27;19919;-69
2022/01/12 08:22:51;;;;;;;;;;;;;;;2.68;100.00;148122.88;5111822;27;20709;-69
2022/01/12 08:25:17;;;;;;;;;;;;;;;2.71;100.00;148130.59;5115815;27;19911;-69
2022/01/12 08:27:42;;;;;;;;;;;;;;;2.69;100.00;148125.44;5114261;27;19922;-69
2022/01/12 08:30:15;;;;;;;;;;;;;;;2.74;100.00;148137.00;5117875;27;19908;-69
2022/01/12 08:32:40;;;;;;;;;;;;;;;2.77;100.00;148146.00;5112860;27;19911;-69
2022/01/12 08:35:06;;;;;;;;;;;;;;;2.76;100.00;148142.16;5117410;27;19907;-69
2022/01/12 08:37:31;;;;;;;;;;;;;;;2.82;100.00;148158.88;5110800;27;19922;-69
2022/01/12 08:39:56;;;;;;;;;;;;;;;2.78;100.00;148148.56;5122704;27;20515;-69
2022/01/12 08:42:22;;;;;;;;;;;;;;;2.79;100.00;148149.91;5113522;27;19923;-69
2022/01/12 08:44:47;;;;;;;;;;;;;;;2.88;100.00;148174.31;5116332;27;19908;-69
2022/01/12 08:47:12;;;;;;;;;;;;;;;2.83;100.00;148160.19;5114564;27;20326;-69
2022/01/12 08:49:37;;;;;;;;;;;;;;;2.84;100.00;148164.03;5120580;27;19914;-69
2022/01/12 08:52:04;;;;;;;;;;;;;;;2.87;100.00;148171.72;5112992;27;19919;-69
2022/01/12 08:54:29;;;;;;;;;;;;;;;2.92;100.00;148184.63;5116147;27;20009;-69
2022/01/12 08:56:54;;;;;;;;;;;;;;;2.94;100.00;148189.75;5117974;27;20418;-69
2022/01/12 08:59:20;;;;;;;;;;;;;;;2.94;100.00;148189.75;5112393;27;19931;-69
2022/01/12 09:01:45;;;;;;;;;;;;;;;2.97;100.00;148194.91;5116676;27;19907;-69
2022/01/12 09:04:10;;;;;;;;;;;;;;;3.05;100.00;148215.50;5119073;27;20614;-69
2022/01/12 09:06:36;;;;;;;;;;;;;;;3.01;100.00;148205.19;5111894;27;19951;-69
2022/01/12 09:09:02;;;;;;;;;;;;;;;3.06;100.00;148218.06;5119401;27;20260;-69
2022/01/12 09:11:28;;;;;;;;;;;;;;;3.16;100.00;148245.09;5116162;27;19908;-69
2022/01/12 09:13:53;;;;;;;;;;;;;;;3.18;100.00;148248.94;5117695;27;19912;-69
2022/01/12 09:16:18;;;;;;;;;;;;;;;3.16;100.00;148243.81;5117701;27;20386;-69
2022/01/12 09:18:44;;;;;;;;;;;;;;;3.20;100.00;148254.09;5111598;27;19956;-69
2022/01/12 09:21:09;;;;;;;;;;;;;;;3.26;100.00;148268.22;5119842;27;19946;-69
2022/01/12 09:23:35;;;;;;;;;;;;;;;3.31;100.00;148282.41;5111381;27;19929;-69
2022/01/12 09:26:01;;;;;;;;;;;;;;;3.36;100.00;148295.25;5116104;27;19912;-70
2022/01/12 09:28:27;;;;;;;;;;;;;;;3.43;100.00;148313.28;5111109;27;19911;-70
2022/01/12 09:30:52;;;;;;;;;;;;;;;3.50;100.00;148330.00;5115972;27;20491;-70
2022/01/12 09:33:18;;;;;;;;;;;;;;;3.47;100.00;148323.56;5110173;27;19925;-70
2022/01/12 09:35:45;;;;;;;;;;;;;;;3.46;100.00;148321.00;5111791;27;19911;-70
2022/01/12 09:38:11;;;;;;;;;;;;;;;3.59;100.00;148351.91;5110227;27;19999;-70
2022/01/12 09:40:36;;;;;;;;;;;;;;;3.66;100.00;148369.94;5111975;27;20034;-70
2022/01/12 09:43:05;;;;;;;;;;;;;;;3.68;100.00;148375.09;5120902;27;19907;-70
2022/01/12 09:45:31;;;;;;;;;;;;;;;3.62;100.00;148359.59;5114089;27;19919;-70
2022/01/12 09:47:57;;;;;;;;;;;;;;;3.79;100.00;148403.41;5118638;27;20312;-70
2022/01/12 09:50:23;;;;;;;;;;;;;;;3.93;100.00;148438.16;5118292;27;19914;-68
2022/01/12 09:52:48;;;;;;;;;;;;;;;4.01;100.00;148458.78;5116430;27;19911;-68
2022/01/12 09:55:14;;;;;;;;;;;;;;;4.09;100.00;148479.34;5122090;27;19915;-70
2022/01/12 09:57:39;;;;;;;;;;;;;;;4.02;100.00;148461.34;5119827;27;19963;-70
2022/01/12 10:00:06;;;;;;;;;;;;;;;4.07;100.00;148475.50;5117057;27;19920;-70
2022/01/12 10:02:31;;;;;;;;;;;;;;;4.07;100.00;148475.50;5114566;27;19907;-70
2022/01/12 10:05:05;;;;;;;;;;;;;;;4.04;100.00;148467.78;5109399;27;19922;-70
2022/01/12 10:07:30;;;;;;;;;;;;;;;4.18;100.00;148501.25;5119015;27;20628;-70
2022/01/12 10:10:00;;;;;;;;;;;;;;;4.13;100.00;148489.69;5107022;27;19919;-70
2022/01/12 10:12:27;;;;;;;;;;;;;;;4.02;100.00;148461.34;5111550;27;19914;-70
2022/01/12 10:14:58;;;;;;;;;;;;;;;4.25;100.00;148520.59;5111458;27;20339;-70
2022/01/12 10:17:37;;;;;;;;;;;;;;;4.25;100.00;148519.31;5115365;27;20311;-70
2022/01/12 10:20:09;;;;;;;;;;;;;;;4.19;100.00;148505.13;5117526;27;19961;-70
2022/01/12 10:22:34;;;;;;;;;;;;;;;4.36;100.00;148547.63;5110968;27;20398;-70
2022/01/12 10:25:00;;;;;;;;;;;;;;;4.38;100.00;148552.81;5115078;27;19915;-68
2022/01/12 10:27:25;;;;;;;;;;;;;;;4.49;100.00;148579.88;5113121;27;20002;-68
2022/01/12 10:29:57;;;;;;;;;;;;;;;4.56;100.00;148599.16;5118426;27;20043;-68
2022/01/12 10:32:23;;;;;;;;;;;;;;;4.57;100.00;148601.72;5109927;27;19907;-68
2022/01/12 10:34:49;;;;;;;;;;;;;;;4.65;100.00;148622.38;5115643;27;19918;-68
2022/01/12 10:37:15;;;;;;;;;;;;;;;4.78;100.00;148654.56;5115807;27;19911;-68
2022/01/12 10:39:42;;;;;;;;;;;;;;;4.56;100.00;148599.16;5113748;27;20490;-68
2022/01/12 10:42:09;;;;;;;;;;;;;;;4.74;100.00;148644.28;5110199;27;19922;-68
2022/01/12 10:44:36;;;;;;;;;;;;;;;4.54;100.00;148594.00;5115448;27;20322;-68
2022/01/12 10:47:05;;;;;;;;;;;;;;;4.64;100.00;148619.78;5108434;27;19912;-69
2022/01/12 10:49:33;;;;;;;;;;;;;;;4.81;100.00;148661.00;5111816;27;19915;-69
2022/01/12 10:51:58;;;;;;;;;;;;;;;4.78;100.00;148653.28;5115442;27;19908;-69
2022/01/12 10:54:24;;;;;;;;;;;;;;;4.71;100.00;148637.81;5108040;27;21149;-69
2022/01/12 10:56:49;;;;;;;;;;;;;;;4.63;100.00;148617.22;5114755;27;19934;-70
2022/01/12 10:59:19;;;;;;;;;;;;;;;4.52;100.00;148588.88;5116532;27;20002;-69
2022/01/12 11:01:44;;;;;;;;;;;;;;;4.37;100.00;148550.22;5110581;27;19907;-69
2022/01/12 11:04:10;;;;;;;;;;;;;;;4.33;100.00;148539.91;5114135;27;19919;-69
2022/01/12 11:06:35;;;;;;;;;;;;;;;4.40;100.00;148557.94;5115132;27;20662;-69
2022/01/12 11:09:05;;;;;;;;;;;;;;;4.47;100.00;148575.97;5109680;27;20437;-69
2022/01/12 11:11:31;;;;;;;;;;;;;;;4.49;100.00;148579.88;5117304;27;19911;-70
2022/01/12 11:13:56;;;;;;;;;;;;;;;4.53;100.00;148591.44;5110691;27;19922;-69
2022/01/12 11:16:22;;;;;;;;;;;;;;;4.64;100.00;148619.78;5110845;27;20299;-69
2022/01/12 11:18:48;;;;;;;;;;;;;;;4.58;100.00;148604.31;5117711;27;19972;-69
2022/01/12 11:21:28;;;;;;;;;;;;;;;4.59;100.00;148606.88;5117300;27;19907;-69
2022/01/12 11:23:56;;;;;;;;;;;;;;;4.69;100.00;148632.66;5111132;27;19941;-69
2022/01/12 11:26:26;;;;;;;;;;;;;;;4.79;100.00;148657.16;5109155;27;19954;-70
2022/01/12 11:28:52;;;;;;;;;;;;;;;4.89;100.00;148682.94;5116040;28;19911;-70
2022/01/12 11:31:22;;;;;;;;;;;;;;;5.06;100.00;148725.44;5117619;28;19995;-69
2022/01/12 11:33:48;;;;;;;;;;;;;;;5.34;100.00;148795.09;5116268;28;19931;-70
2022/01/12 11:36:13;;;;;;;;;;;;;;;5.42;100.00;148816.97;5109556;28;19907;-70
2022/01/12 11:38:38;;;;;;;;;;;;;;;5.73;100.00;148895.66;5112211;28;19911;-70
2022/01/12 11:41:22;;;;;;;;;;;;;;;5.82;100.00;148917.59;5108314;28;19911;-69
2022/01/12 11:43:52;;;;;;;;;;;;;;;5.89;100.00;148936.94;5112475;28;19919;-70
2022/01/12 11:46:20;;;;;;;;;;;;;;;5.95;100.00;148949.91;5114561;28;19915;-70
2022/01/12 11:49:03;;;;;;;;;;;;;;;5.88;100.00;148933.06;5109598;28;19911;-69
2022/01/12 11:51:36;;;;;;;;;;;;;;;5.62;100.00;147855.03;5122332;27;20585;-70
2022/01/12 11:54:09;;;;;;;;;;;;;;;5.75;100.00;145869.50;5117178;27;19926;-70
2022/01/12 11:56:35;;;;;;;;;;;;;;;5.43;100.00;143772.03;5119163;27;19938;-70
2022/01/12 11:59:11;;;;;;;;;;;;;;;5.20;100.00;143045.53;5113387;27;19961;-69
2022/01/12 12:01:38;;;;;;;;;;;;;;;5.13;100.00;144371.53;5112030;27;19907;-69
2022/01/12 12:04:04;;;;;;;;;;;;;;;4.93;100.00;144657.28;5118253;27;19922;-69
2022/01/12 12:06:30;;;;;;;;;;;;;;;4.74;100.00;144275.22;5120056;27;19920;-70
2022/01/12 12:08:57;;;;;;;;;;;;;;;4.56;100.00;144565.75;5120553;27;19926;-70
2022/01/12 12:11:24;;;;;;;;;;;;;;;4.48;100.00;145218.13;5119125;27;19953;-69
2022/01/12 12:13:49;;;;;;;;;;;;;;;4.65;100.00;147611.78;5121547;27;19913;-70
2022/01/12 12:16:16;;;;;;;;;;;;;;;4.73;100.00;148301.75;5111731;27;20585;-70
2022/01/12 12:18:41;;;;;;;;;;;;;;;4.90;100.00;148684.22;5120478;27;19926;-70
2022/01/12 12:21:07;;;;;;;;;;;;;;;5.02;100.00;148712.53;5120345;27;20295;-70
2022/01/12 12:23:32;;;;;;;;;;;;;;;4.87;100.00;146994.75;5113299;27;19959;-70
2022/01/12 12:25:59;;;;;;;;;;;;;;;4.77;100.00;144952.91;5117760;27;19926;-69
2022/01/12 12:28:24;;;;;;;;;;;;;;;4.89;100.00;145654.78;5111111;27;19908;-69
2022/01/12 12:30:50;;;;;;;;;;;;;;;4.95;100.00;145334.00;5114823;27;20522;-70
2022/01/12 12:33:16;;;;;;;;;;;;;;;5.12;100.00;145712.88;5119682;27;19961;-70
2022/01/12 12:35:42;;;;;;;;;;;;;;;4.77;100.00;144617.16;5112852;27;19915;-69
2022/01/12 12:38:09;;;;;;;;;;;;;;;4.77;100.00;144952.91;5115491;27;20280;-70
2022/01/12 12:40:45;;;;;;;;;;;;;;;4.65;100.00;145595.44;5111362;27;19998;-69
2022/01/12 12:43:17;;;;;;;;;;;;;;;4.65;100.00;146938.69;5115725;27;19974;-69
2022/01/12 12:45:54;;;;;;;;;;;;;;;4.75;100.00;148308.16;5115173;27;20283;-70
2022/01/12 12:48:20;;;;;;;;;;;;;;;4.67;100.00;147952.84;5112406;27;19918;-70
2022/01/12 12:50:46;;;;;;;;;;;;;;;4.79;100.00;148317.16;5109691;27;20299;-70
2022/01/12 12:53:12;;;;;;;;;;;;;;;4.78;100.00;147978.53;5115912;27;20435;-70
2022/01/12 12:55:39;;;;;;;;;;;;;;;4.62;100.00;146595.22;5118321;27;19919;-70
2022/01/12 12:58:04;;;;;;;;;;;;;;;4.67;100.00;146945.03;5112784;27;20485;-69
2022/01/12 13:00:30;;;;;;;;;;;;;;;4.68;100.00;146947.59;5117607;27;19920;-70
2022/01/12 13:02:56;;;;;;;;;;;;;;;4.54;100.00;145904.63;5115261;27;19946;-69
2022/01/12 13:05:23;;;;;;;;;;;;;;;4.57;100.00;145912.22;5116382;27;20566;-70
2022/01/12 13:07:52;;;;;;;;;;;;;;;4.65;100.00;146268.25;5117185;27;20132;-70
2022/01/12 13:10:26;;;;;;;;;;;;;;;4.68;100.00;144932.78;5116489;27;19912;-70
2022/01/12 13:13:03;;;;;;;;;;;;;;;4.88;100.00;143974.50;5113201;27;19911;-70
2022/01/12 13:15:30;;;;;;;;;;;;;;;4.98;100.00;142991.03;5114210;27;20330;-70
2022/01/12 13:18:08;;;;;;;;;;;;;;;4.96;100.00;140637.09;5113924;27;19967;-70
2022/01/12 13:23:21;;;;;;;;;;;;;;;5.10;100.00;138658.66;5109951;27;19960;-70
2022/01/12 13:25:47;;;;;;;;;;;;;;;5.11;100.00;138324.50;5110436;27;19911;-70
2022/01/12 13:28:12;;;;;;;;;;;;;;;5.08;100.00;136307.25;5119260;27;19964;-70
2022/01/12 13:30:46;;;;;;;;;;;;;;;5.12;100.00;134306.50;5112705;27;19919;-70
2022/01/12 13:33:12;;;;;;;;;;;;;;;5.22;100.00;132320.38;5114681;27;19907;-69
2022/01/12 13:35:37;;;;;;;;;;;;;;;5.31;100.00;130331.25;5118413;27;19941;-70
2022/01/12 13:38:04;;;;;;;;;;;;;;;5.27;100.00;125307.16;5115758;27;20283;-69
2022/01/12 13:40:37;;;;;;;;;;;;;;;5.19;100.00;119946.69;5112674;27;19999;-70
2022/01/12 13:43:02;;;;;;;;;;;;;;;5.17;100.00;115276.09;5115646;27;19912;-69
2022/01/12 13:45:38;;;;;;;;;;;;;;;5.24;100.00;113624.47;5111086;27;20471;-70
2022/01/12 13:48:12;;;;;;;;;;;;;;;5.24;100.00;110960.09;5112003;27;19915;-70
2022/01/12 13:50:38;;;;;;;;;;;;;;;5.25;100.00;106971.63;5117196;27;19961;-70
2022/01/12 13:53:05;;;;;;;;;;;;;;;5.37;100.00;105662.38;5118465;27;20644;-69
2022/01/12 13:55:31;;;;;;;;;;;;;;;5.49;100.00;103690.41;5115018;27;19919;-69
2022/01/12 13:57:57;;;;;;;;;;;;;;;5.50;100.00;95727.47;5114658;27;19972;-69
2022/01/12 14:00:22;;;;;;;;;;;;;;;5.43;100.00;88432.44;5109697;27;20321;-69
2022/01/12 14:02:48;;;;;;;;;;;;;;;5.36;100.00;83463.81;5113482;27;19968;-69
2022/01/12 14:05:20;;;;;;;;;;;;;;;5.19;100.00;71904.81;5111730;27;19918;-69
2022/01/12 14:08:00;;;;;;;;;;;;;;;5.18;100.00;64015.91;5110739;27;19919;-69